createdAt,value
2019-05-15T00:01:00.517Z,99.90
2019-05-15T00:03:30.256Z,99.90
2019-05-15T00:06:00.152Z,99.90
2019-05-15T00:08:29.738Z,99.90
2019-05-15T00:10:59.465Z,99.80
2019-05-15T00:13:29.214Z,99.80
2019-05-15T00:15:59.071Z,99.80
2019-05-15T00:18:28.242Z,99.80
2019-05-15T00:20:59.519Z,99.90
2019-05-15T00:23:29.291Z,99.90
2019-05-15T00:25:58.968Z,99.90
2019-05-15T00:28:29.536Z,99.90
2019-05-15T00:30:59.299Z,99.90
2019-05-15T00:33:29.021Z,99.90
2019-05-15T00:35:59.031Z,99.90
2019-05-15T00:38:28.725Z,99.90
2019-05-15T00:40:58.603Z,99.90
2019-05-15T00:43:29.089Z,99.90
2019-05-15T00:45:58.800Z,99.90
2019-05-15T00:48:29.247Z,99.90
2019-05-15T00:50:59.118Z,99.90
2019-05-15T00:53:28.752Z,99.90
2019-05-15T00:55:58.437Z,99.90
2019-05-15T00:58:28.424Z,99.90
2019-05-15T01:00:59.175Z,99.90
2019-05-15T01:03:29.004Z,99.90
2019-05-15T01:05:58.711Z,99.90
2019-05-15T01:08:28.589Z,99.90
2019-05-15T01:10:58.266Z,99.90
2019-05-15T01:13:29.089Z,99.90
2019-05-15T01:15:58.746Z,99.90
2019-05-15T01:18:29.239Z,99.90
2019-05-15T01:20:59.128Z,99.90
2019-05-15T01:23:28.881Z,99.90
2019-05-15T01:25:58.945Z,99.90
2019-05-15T01:28:28.965Z,99.90
2019-05-15T01:30:59.314Z,99.90
2019-05-15T01:33:30.019Z,99.90
2019-05-15T01:35:59.668Z,99.90
2019-05-15T01:38:29.362Z,99.90
2019-05-15T01:40:59.223Z,99.90
2019-05-15T01:43:29.087Z,99.90
2019-05-15T01:45:58.996Z,99.90
2019-05-15T01:48:28.633Z,99.90
2019-05-15T01:50:58.698Z,99.90
2019-05-15T01:53:29.175Z,99.90
2019-05-15T01:55:59.043Z,99.90
2019-05-15T01:58:28.903Z,99.90
2019-05-15T02:00:59.038Z,99.90
2019-05-15T02:03:29.798Z,99.90
2019-05-15T02:05:59.519Z,99.90
2019-05-15T02:08:29.216Z,99.90
2019-05-15T02:10:59.064Z,99.90
2019-05-15T02:13:28.811Z,99.90
2019-05-15T02:15:58.909Z,99.90
2019-05-15T02:18:28.731Z,99.90
2019-05-15T02:20:58.859Z,99.90
2019-05-15T02:23:28.527Z,99.90
2019-05-15T02:25:58.865Z,99.90
2019-05-15T02:28:28.996Z,99.90
2019-05-15T02:30:58.781Z,99.90
2019-05-15T02:33:30.082Z,99.90
2019-05-15T02:35:59.951Z,99.90
2019-05-15T02:38:29.960Z,99.90
2019-05-15T02:40:59.838Z,99.90
2019-05-15T02:43:29.982Z,99.90
2019-05-15T02:46:00.938Z,99.90
2019-05-15T02:48:31.696Z,99.90
2019-05-15T02:51:01.431Z,99.90
2019-05-15T02:53:31.179Z,99.90
2019-05-15T02:56:00.719Z,99.90
2019-05-15T02:58:30.413Z,99.90
2019-05-15T03:01:00.069Z,99.90
2019-05-15T03:03:29.716Z,99.90
2019-05-15T03:06:00.515Z,99.90
2019-05-15T03:08:30.202Z,99.90
2019-05-15T03:10:59.797Z,99.90
2019-05-15T03:13:30.057Z,99.90
2019-05-15T03:16:00.121Z,99.90
2019-05-15T03:18:30.034Z,99.90
2019-05-15T03:21:00.393Z,99.90
2019-05-15T03:23:30.374Z,99.90
2019-05-15T03:26:04.073Z,99.80
2019-05-15T03:28:31.317Z,99.90
2019-05-15T03:31:22.566Z,99.90
2019-05-15T03:33:36.506Z,99.90
2019-05-15T03:36:03.944Z,99.90
2019-05-15T03:38:32.917Z,99.90
2019-05-15T03:41:02.547Z,99.90
2019-05-15T03:43:32.228Z,99.90
2019-05-15T03:46:02.107Z,99.90
2019-05-15T03:48:32.835Z,99.90
2019-05-15T03:51:02.525Z,99.90
2019-05-15T03:53:32.092Z,99.90
2019-05-15T03:56:01.743Z,99.90
2019-05-15T03:58:32.611Z,99.90
2019-05-15T04:01:02.302Z,99.90
2019-05-15T04:03:32.073Z,99.90
2019-05-15T04:06:01.699Z,99.90
2019-05-15T04:08:31.428Z,99.90
2019-05-15T04:11:01.043Z,99.90
2019-05-15T04:13:30.722Z,99.90
2019-05-15T04:16:00.392Z,99.90
2019-05-15T04:18:30.045Z,99.90
2019-05-15T04:21:00.371Z,99.90
2019-05-15T04:23:30.383Z,99.90
2019-05-15T04:25:59.310Z,99.90
2019-05-15T04:28:32.204Z,99.90
2019-05-15T04:31:02.209Z,99.90
2019-05-15T04:33:31.881Z,99.90
2019-05-15T04:36:01.679Z,99.90
2019-05-15T04:38:31.459Z,99.90
2019-05-15T04:41:01.103Z,99.90
2019-05-15T04:43:39.709Z,99.90
2019-05-15T04:46:03.036Z,99.90
2019-05-15T04:48:33.072Z,99.90
2019-05-15T04:51:03.892Z,99.90
2019-05-15T04:53:35.094Z,99.90
2019-05-15T04:56:09.481Z,99.90
2019-05-15T04:58:39.766Z,99.90
2019-05-15T05:01:09.796Z,99.90
2019-05-15T05:03:43.199Z,99.90
2019-05-15T05:06:14.277Z,99.90
2019-05-15T05:08:45.227Z,99.90
2019-05-15T05:11:34.141Z,99.90
2019-05-15T05:14:03.836Z,99.90
2019-05-15T05:16:33.585Z,99.90
2019-05-15T05:19:03.462Z,99.80
2019-05-15T05:21:33.135Z,99.80
2019-05-15T05:24:03.055Z,99.60
2019-05-15T05:26:32.054Z,99.90
2019-05-15T05:29:01.741Z,99.90
2019-05-15T05:31:31.548Z,99.90
2019-05-15T05:34:01.143Z,99.90
2019-05-15T05:36:33.595Z,99.90
2019-05-15T05:39:04.647Z,99.90
2019-05-15T05:41:34.269Z,99.90
2019-05-15T05:44:04.087Z,99.70
2019-05-15T05:46:33.780Z,99.80
2019-05-15T05:49:03.571Z,99.70
2019-05-15T05:51:35.428Z,98.60
2019-05-15T05:54:05.147Z,99.10
2019-05-15T05:56:34.786Z,99.40
2019-05-15T05:59:04.404Z,99.90
2019-05-15T06:01:36.998Z,99.90
2019-05-15T06:04:07.919Z,99.90
2019-05-15T06:06:38.416Z,99.50
2019-05-15T06:09:09.291Z,99.30
2019-05-15T06:11:40.816Z,99.50
2019-05-15T06:14:10.509Z,99.70
2019-05-15T06:16:48.299Z,99.10
2019-05-15T06:19:20.789Z,99.10
2019-05-15T06:21:57.194Z,98.20
2019-05-15T06:24:21.907Z,97.90
2019-05-15T06:26:51.591Z,98.00
2019-05-15T06:29:23.970Z,97.40
2019-05-15T06:31:58.756Z,96.90
2019-05-15T06:34:30.408Z,95.50
2019-05-15T06:37:00.171Z,95.50
2019-05-15T06:39:31.429Z,96.50
2019-05-15T06:42:08.780Z,96.00
2019-05-15T06:44:39.820Z,95.60
2019-05-15T06:47:14.067Z,96.80
2019-05-15T06:49:43.734Z,97.40
2019-05-15T06:52:13.382Z,98.00
2019-05-15T06:54:42.924Z,96.60
2019-05-15T06:57:12.601Z,97.10
2019-05-15T06:59:42.201Z,97.50
2019-05-15T07:02:11.967Z,96.90
2019-05-15T07:04:41.765Z,97.80
2019-05-15T07:07:11.593Z,97.20
2019-05-15T07:09:42.302Z,97.40
2019-05-15T07:12:13.536Z,97.50
2019-05-15T07:14:43.317Z,96.50
2019-05-15T07:17:13.091Z,95.90
2019-05-15T07:19:42.833Z,96.70
2019-05-15T07:22:12.846Z,96.70
2019-05-15T07:24:41.707Z,96.20
2019-05-15T07:27:11.295Z,96.30
2019-05-15T07:29:41.083Z,94.00
2019-05-15T07:32:11.840Z,96.20
2019-05-15T07:34:41.606Z,96.60
2019-05-15T07:37:11.337Z,96.50
2019-05-15T07:39:48.820Z,95.30
2019-05-15T07:42:12.535Z,95.50
2019-05-15T07:44:43.285Z,96.40
2019-05-15T07:47:14.782Z,95.30
2019-05-15T07:49:43.616Z,95.70
2019-05-15T07:52:13.416Z,95.40
2019-05-15T07:55:21.281Z,94.90
2019-05-15T07:58:20.735Z,94.90
2019-05-15T08:00:50.390Z,93.90
2019-05-15T08:04:20.527Z,94.70
2019-05-15T08:06:29.511Z,94.30
2019-05-15T08:09:12.917Z,93.70
2019-05-15T08:48:28.006Z,90.80
2019-05-15T08:54:05.730Z,92.00
2019-05-15T09:14:51.719Z,95.00
2019-05-15T09:17:21.435Z,95.80
2019-05-15T09:19:51.110Z,96.30
2019-05-15T09:22:29.503Z,96.20
2019-05-15T09:25:00.190Z,95.40
2019-05-15T09:27:29.676Z,96.30
2019-05-15T09:30:00.617Z,96.50
2019-05-15T09:32:33.678Z,96.00
2019-05-15T09:35:08.436Z,95.20
2019-05-15T09:37:40.882Z,95.20
2019-05-15T09:40:11.482Z,95.80
2019-05-15T09:42:43.066Z,93.90
2019-05-15T09:45:17.879Z,95.90
2019-05-15T09:47:52.969Z,96.20
2019-05-15T09:50:24.980Z,95.90
2019-05-15T10:05:38.800Z,95.50
2019-05-15T10:08:10.261Z,93.00
2019-05-15T10:10:45.476Z,94.50
2019-05-15T10:16:42.893Z,94.50
2019-05-15T10:19:14.365Z,94.60
2019-05-15T10:21:44.869Z,95.70
2019-05-15T10:24:21.808Z,96.20
2019-05-15T10:26:51.581Z,96.00
2019-05-15T10:29:21.344Z,94.90
2019-05-15T10:31:51.182Z,96.50
2019-05-15T10:34:20.163Z,95.60
2019-05-15T10:36:49.794Z,95.20
2019-05-15T10:39:19.522Z,94.80
2019-05-15T10:41:49.296Z,94.70
2019-05-15T10:44:21.877Z,95.50
2019-05-15T10:46:51.491Z,94.00
2019-05-15T10:49:21.250Z,93.40
2019-05-15T10:51:50.986Z,93.50
2019-05-15T10:54:20.772Z,92.70
2019-05-15T10:56:51.838Z,93.90
2019-05-15T10:59:21.666Z,91.30
2019-05-15T11:01:50.596Z,91.00
2019-05-15T11:04:20.300Z,91.00
2019-05-15T11:06:49.924Z,92.90
2019-05-15T11:09:22.135Z,92.90
2019-05-15T11:11:51.812Z,91.80
2019-05-15T11:14:24.196Z,90.20
2019-05-15T11:17:03.344Z,89.90
2019-05-15T11:19:58.616Z,89.60
2019-05-15T11:25:23.378Z,80.20
2019-05-15T11:28:32.257Z,83.90
2019-05-15T11:31:01.553Z,79.60
2019-05-15T11:33:32.813Z,83.50
2019-05-15T11:36:06.067Z,77.70
2019-05-15T11:38:33.816Z,75.60
2019-05-15T11:41:04.738Z,78.70
2019-05-15T11:43:34.619Z,79.60
2019-05-15T11:46:04.319Z,75.30
2019-05-15T11:48:33.917Z,77.40
2019-05-15T11:57:46.803Z,87.70
2019-05-15T12:03:53.904Z,80.70
2019-05-15T12:06:35.279Z,70.50
2019-05-15T12:09:09.125Z,73.40
2019-05-15T12:11:41.658Z,83.90
2019-05-15T12:14:12.881Z,78.20
2019-05-15T12:16:42.296Z,83.50
2019-05-15T12:19:17.077Z,84.10
2019-05-15T12:21:43.058Z,80.00
2019-05-15T12:24:12.594Z,76.50
2019-05-15T12:26:42.301Z,82.30
2019-05-15T12:31:58.945Z,83.90
2019-05-15T12:34:59.991Z,80.40
2019-05-15T12:37:45.127Z,77.20
2019-05-15T13:01:17.139Z,64.10
2019-05-15T13:03:42.399Z,69.80
2019-05-15T13:06:46.115Z,61.90
2019-05-15T13:09:11.049Z,66.40
2019-05-15T13:12:20.197Z,70.40
2019-05-15T13:14:59.071Z,66.30
2019-05-15T13:20:04.637Z,76.30
2019-05-15T14:09:09.377Z,59.90
2019-05-15T14:34:31.718Z,52.70
2019-05-15T14:37:16.138Z,44.00
2019-05-15T14:39:58.952Z,44.00
2019-05-15T14:42:35.825Z,40.10
2019-05-15T14:45:11.313Z,33.50
2019-05-15T14:47:45.905Z,35.90
2019-05-15T14:50:15.744Z,35.80
2019-05-15T14:52:48.628Z,33.50
2019-05-15T14:55:21.532Z,33.00
2019-05-15T14:57:59.162Z,32.40
2019-05-15T15:00:34.461Z,29.90
2019-05-15T15:03:00.771Z,27.80
2019-05-15T15:05:38.312Z,33.60
2019-05-15T15:11:13.509Z,27.10
2019-05-15T15:13:43.183Z,34.00
2019-05-15T15:16:19.346Z,33.70
2019-05-15T15:18:50.906Z,29.90
2019-05-15T15:21:22.818Z,32.70
2019-05-15T15:23:55.556Z,36.20
2019-05-15T15:26:27.467Z,34.90
2019-05-15T15:29:35.879Z,37.30
2019-05-15T15:35:08.274Z,36.80
2019-05-15T15:37:58.589Z,36.40
2019-05-15T15:40:55.095Z,37.80
2019-05-15T15:46:55.858Z,36.20
2019-05-15T16:05:19.220Z,29.90
2019-05-15T16:17:39.270Z,30.80
2019-05-15T16:20:15.647Z,32.10
2019-05-15T16:23:00.066Z,36.70
2019-05-15T16:28:14.257Z,33.00
2019-05-15T16:30:51.577Z,34.00
2019-05-15T16:33:29.095Z,28.70
2019-05-15T16:36:05.422Z,33.20
2019-05-15T16:38:39.149Z,37.80
2019-05-15T16:41:08.988Z,38.90
2019-05-15T16:43:38.941Z,38.70
2019-05-15T16:46:09.177Z,41.70
2019-05-15T16:48:39.217Z,43.60
2019-05-15T16:51:09.424Z,43.40
2019-05-15T16:53:39.495Z,42.00
2019-05-15T16:56:09.257Z,47.80
2019-05-15T16:58:39.073Z,47.20
2019-05-15T17:04:21.394Z,58.10
2019-05-15T17:06:58.534Z,57.50
2019-05-15T17:09:31.223Z,54.50
2019-05-15T17:12:01.143Z,56.80
2019-05-15T17:14:31.001Z,62.40
2019-05-15T17:17:00.656Z,62.00
2019-05-15T17:19:30.388Z,57.80
2019-05-15T17:22:00.154Z,59.70
2019-05-15T17:24:29.973Z,55.60
2019-05-15T17:26:59.656Z,58.30
2019-05-15T17:29:29.622Z,53.50
2019-05-15T17:32:01.394Z,53.40
2019-05-15T17:34:31.259Z,53.70
2019-05-15T17:37:01.040Z,54.80
2019-05-15T17:39:36.769Z,56.60
2019-05-15T17:42:05.040Z,57.10
2019-05-15T17:44:34.801Z,55.30
2019-05-15T17:47:04.655Z,54.30
2019-05-15T17:49:38.583Z,59.80
2019-05-15T17:52:09.396Z,66.80
2019-05-15T17:54:39.519Z,61.00
2019-05-15T17:57:09.637Z,75.20
2019-05-15T17:59:42.533Z,79.50
2019-05-15T18:02:13.239Z,71.90
2019-05-15T18:04:48.008Z,80.70
2019-05-15T18:08:10.499Z,71.70
2019-05-15T18:11:41.073Z,75.20
2019-05-15T18:14:32.395Z,85.70
2019-05-15T18:17:00.052Z,84.80
2019-05-15T18:19:55.316Z,77.70
2019-05-15T18:22:48.963Z,83.40
2019-05-15T18:28:58.144Z,85.50
2019-05-15T18:31:40.910Z,91.20
2019-05-15T18:34:18.868Z,93.30
2019-05-15T18:37:36.031Z,93.60
2019-05-15T18:42:58.954Z,94.50
2019-05-15T18:46:33.110Z,95.60
2019-05-15T18:58:04.898Z,96.30
2019-05-15T19:00:43.757Z,96.60
2019-05-15T19:03:27.768Z,96.50
2019-05-15T19:06:18.437Z,97.00
2019-05-15T19:08:59.765Z,97.20
2019-05-15T19:11:42.440Z,96.90
2019-05-15T19:14:22.011Z,97.40
2019-05-15T19:17:00.593Z,97.30
2019-05-15T19:20:01.688Z,97.50
2019-05-15T19:22:59.038Z,97.40
2019-05-15T19:26:02.763Z,96.60
2019-05-15T19:28:54.064Z,97.60
2019-05-15T19:33:45.476Z,97.80
2019-05-15T19:35:15.840Z,98.00
2019-05-15T19:40:47.851Z,98.00
2019-05-15T21:11:58.651Z,99.60
2019-05-15T21:14:29.738Z,99.70
2019-05-15T21:20:18.221Z,99.90
2019-05-15T21:22:53.484Z,99.90
2019-05-15T21:25:28.530Z,99.90
2019-05-15T21:27:58.843Z,99.90
2019-05-15T21:30:29.570Z,99.90
2019-05-15T21:32:59.433Z,99.90
2019-05-15T21:35:30.543Z,99.90
2019-05-15T21:38:00.462Z,99.90
2019-05-15T21:40:31.585Z,99.90
2019-05-15T21:43:01.240Z,99.90
2019-05-15T21:45:30.832Z,99.90
2019-05-15T21:48:02.319Z,98.60
2019-05-15T21:50:33.649Z,98.70
2019-05-15T21:53:03.436Z,99.30
2019-05-15T21:55:33.938Z,99.70
2019-05-15T21:58:08.175Z,99.90
2019-05-15T22:00:40.645Z,99.90
2019-05-15T22:03:10.685Z,99.90
2019-05-15T22:05:40.544Z,99.90
2019-05-15T22:08:11.612Z,99.90
2019-05-15T22:10:41.643Z,99.90
2019-05-15T22:13:11.363Z,99.90
2019-05-15T22:15:41.541Z,99.90
2019-05-15T22:18:12.845Z,99.90
2019-05-15T22:20:42.721Z,99.90
2019-05-15T22:23:11.645Z,99.90
2019-05-15T22:25:41.688Z,99.90
2019-05-15T22:28:11.547Z,99.90
2019-05-15T22:30:42.088Z,99.90
2019-05-15T22:33:11.889Z,99.90
2019-05-15T22:35:41.691Z,99.90
2019-05-15T22:38:11.531Z,99.90
2019-05-15T22:40:48.414Z,99.80
2019-05-15T22:43:18.604Z,99.90
2019-05-15T22:45:48.504Z,99.90
2019-05-15T22:48:18.389Z,99.90
2019-05-15T22:50:47.870Z,99.60
2019-05-15T22:53:17.873Z,99.50
2019-05-15T22:55:48.337Z,99.30
2019-05-15T22:58:18.205Z,99.70
2019-05-15T23:00:48.943Z,99.90
2019-05-15T23:03:20.035Z,99.90
2019-05-15T23:05:58.164Z,99.90
2019-05-15T23:08:29.046Z,99.90
2019-05-15T23:10:59.142Z,99.70
2019-05-15T23:13:33.611Z,99.90
2019-05-15T23:16:03.617Z,99.90
2019-05-15T23:18:36.514Z,99.90
2019-05-15T23:23:38.054Z,99.90
2019-05-15T23:26:09.393Z,99.90
2019-05-15T23:28:39.071Z,99.90
2019-05-15T23:31:09.839Z,99.90
2019-05-15T23:33:39.650Z,99.90
2019-05-15T23:36:09.414Z,99.90
2019-05-15T23:38:40.052Z,99.90
2019-05-15T23:41:12.775Z,99.90
2019-05-15T23:43:42.550Z,99.90
2019-05-15T23:46:12.224Z,99.90
2019-05-15T23:48:41.946Z,99.90
2019-05-15T23:51:11.761Z,99.90
2019-05-15T23:53:42.640Z,99.90
2019-05-15T23:56:12.520Z,99.90
2019-05-15T23:58:42.154Z,99.90
